ムンバイ の空港の天気 - METARとTAF

チャットラパティー・シヴァージー国際空港 ( VABB / BOM ) - インド ムンバイ
飛行場実況気象(Metar)
観測時間04/26 16:30 IST (04/26 11:00 UTC)
風向・風速西 4m/s 瞬間風速9m/s
視程6000m
天気現象
なし
気温31℃
湿度62%
気圧1006hPa
METARVABB 261100Z 28007G17KT 6000 NSC 31/23 Q1006 BECMG 5000 HZ
過去の天気等 Google飛行場航空写真 Wunderground天気予報

過去48時間のMETAR

飛行場予報(TAF)
発表時間: 4/26 10:30 IST (4/26 05:00 UTC)
予報対象時間: 26日11時 IST ~ 27日17時 IST
風向・風速西 5m/s
視程4,000m
天気現象
少しの雲 雲底高度 610m
26日14時 IST ~ 26日16時 IST に徐々に
視程5,000m
天気現象
26日19時 IST ~ 26日21時 IST に徐々に
視程4,000m
天気現象煙霧
26日22時 IST ~ 27日24時 IST に徐々に
風向・風速北西 3m/s
27日1時 IST ~ 27日3時 IST に徐々に
視程3,000m
天気現象煙霧
27日5時 IST ~ 27日7時 IST に徐々に
風向・風速静穏
27日11時 IST ~ 27日13時 IST に徐々に
風向・風速西 5m/s
視程4,000m
天気現象
27日14時 IST ~ 27日16時 IST に徐々に
視程5,000m
天気現象
TAF VABB 260500Z 2606/2712 26010KT 4000 FU FEW020
BECMG 2609/2611 5000 FU
BECMG 2614/2616 4000 HZ
BECMG 2617/2619 32005KT
BECMG 2620/2622 3000 HZ
BECMG 2700/2702 00000KT
BECMG 2706/2708 27010KT 4000 FU
BECMG 2709/2711 5000 FU